sensor_id;sensor_type;location;lat;lon;timestamp;P1;durP1;ratioP1;P2;durP2;ratioP2
14619;SDS011;32125;48.518;9.050;2022-08-19T00:00:36;16.48;;;14.98;;
14619;SDS011;32125;48.518;9.050;2022-08-19T00:03:05;16.63;;;15.07;;
14619;SDS011;32125;48.518;9.050;2022-08-19T00:05:31;16.88;;;15.27;;
14619;SDS011;32125;48.518;9.050;2022-08-19T00:08:00;16.65;;;14.93;;
14619;SDS011;32125;48.518;9.050;2022-08-19T00:10:26;16.38;;;14.82;;
14619;SDS011;32125;48.518;9.050;2022-08-19T00:12:52;17.40;;;15.75;;
14619;SDS011;32125;48.518;9.050;2022-08-19T00:15:20;16.33;;;14.73;;
14619;SDS011;32125;48.518;9.050;2022-08-19T00:17:47;17.15;;;15.60;;
14619;SDS011;32125;48.518;9.050;2022-08-19T00:20:15;18.90;;;17.00;;
14619;SDS011;32125;48.518;9.050;2022-08-19T00:22:44;17.55;;;15.85;;
14619;SDS011;32125;48.518;9.050;2022-08-19T00:25:10;17.80;;;16.10;;
14619;SDS011;32125;48.518;9.050;2022-08-19T00:27:37;17.52;;;15.85;;
14619;SDS011;32125;48.518;9.050;2022-08-19T00:30:05;17.13;;;15.48;;
14619;SDS011;32125;48.518;9.050;2022-08-19T00:32:32;16.27;;;14.88;;
14619;SDS011;32125;48.518;9.050;2022-08-19T00:34:59;16.33;;;14.80;;
14619;SDS011;32125;48.518;9.050;2022-08-19T00:37:25;16.67;;;15.18;;
14619;SDS011;32125;48.518;9.050;2022-08-19T00:39:51;16.80;;;15.20;;
14619;SDS011;32125;48.518;9.050;2022-08-19T00:42:18;16.77;;;15.18;;
14619;SDS011;32125;48.518;9.050;2022-08-19T00:44:48;16.77;;;15.13;;
14619;SDS011;32125;48.518;9.050;2022-08-19T00:47:14;16.55;;;15.05;;
14619;SDS011;32125;48.518;9.050;2022-08-19T00:49:47;16.27;;;14.77;;
14619;SDS011;32125;48.518;9.050;2022-08-19T00:52:20;15.68;;;14.27;;
14619;SDS011;32125;48.518;9.050;2022-08-19T00:54:56;15.63;;;14.20;;
14619;SDS011;32125;48.518;9.050;2022-08-19T00:57:28;15.00;;;13.50;;
14619;SDS011;32125;48.518;9.050;2022-08-19T00:59:55;16.15;;;14.75;;
14619;SDS011;32125;48.518;9.050;2022-08-19T01:02:23;17.35;;;15.55;;
14619;SDS011;32125;48.518;9.050;2022-08-19T01:04:52;17.08;;;15.35;;
14619;SDS011;32125;48.518;9.050;2022-08-19T01:07:18;17.33;;;14.95;;
14619;SDS011;32125;48.518;9.050;2022-08-19T01:09:46;16.90;;;15.30;;
14619;SDS011;32125;48.518;9.050;2022-08-19T01:12:12;17.63;;;15.85;;
14619;SDS011;32125;48.518;9.050;2022-08-19T01:14:38;17.17;;;15.57;;
14619;SDS011;32125;48.518;9.050;2022-08-19T01:17:05;16.35;;;14.68;;
14619;SDS011;32125;48.518;9.050;2022-08-19T01:19:38;17.35;;;15.75;;
14619;SDS011;32125;48.518;9.050;2022-08-19T01:24:35;17.10;;;15.48;;
14619;SDS011;32125;48.518;9.050;2022-08-19T01:27:03;17.48;;;15.77;;
14619;SDS011;32125;48.518;9.050;2022-08-19T01:29:29;17.77;;;15.93;;
14619;SDS011;32125;48.518;9.050;2022-08-19T01:31:55;17.95;;;16.15;;
14619;SDS011;32125;48.518;9.050;2022-08-19T01:34:22;17.83;;;16.10;;
14619;SDS011;32125;48.518;9.050;2022-08-19T01:36:49;16.60;;;15.00;;
14619;SDS011;32125;48.518;9.050;2022-08-19T01:39:16;18.27;;;16.57;;
14619;SDS011;32125;48.518;9.050;2022-08-19T01:41:46;17.20;;;15.50;;
14619;SDS011;32125;48.518;9.050;2022-08-19T01:44:15;17.77;;;16.07;;
14619;SDS011;32125;48.518;9.050;2022-08-19T01:46:41;18.07;;;16.17;;
14619;SDS011;32125;48.518;9.050;2022-08-19T01:49:10;19.45;;;16.75;;
14619;SDS011;32125;48.518;9.050;2022-08-19T01:51:38;18.67;;;16.67;;
14619;SDS011;32125;48.518;9.050;2022-08-19T01:54:04;17.33;;;15.63;;
14619;SDS011;32125;48.518;9.050;2022-08-19T01:56:30;17.87;;;16.10;;
14619;SDS011;32125;48.518;9.050;2022-08-19T01:58:58;18.33;;;16.53;;
14619;SDS011;32125;48.518;9.050;2022-08-19T02:01:28;18.53;;;16.63;;
14619;SDS011;32125;48.518;9.050;2022-08-19T02:03:56;19.23;;;17.33;;
14619;SDS011;32125;48.518;9.050;2022-08-19T02:06:23;18.20;;;16.10;;
14619;SDS011;32125;48.518;9.050;2022-08-19T02:08:48;18.97;;;17.07;;
14619;SDS011;32125;48.518;9.050;2022-08-19T02:11:24;18.93;;;16.93;;
14619;SDS011;32125;48.518;9.050;2022-08-19T02:13:53;18.70;;;16.80;;
14619;SDS011;32125;48.518;9.050;2022-08-19T02:16:19;18.40;;;16.50;;
14619;SDS011;32125;48.518;9.050;2022-08-19T02:18:48;19.43;;;17.43;;
14619;SDS011;32125;48.518;9.050;2022-08-19T02:21:16;19.27;;;17.10;;
14619;SDS011;32125;48.518;9.050;2022-08-19T02:23:43;20.77;;;16.80;;
14619;SDS011;32125;48.518;9.050;2022-08-19T02:26:09;18.80;;;16.90;;
14619;SDS011;32125;48.518;9.050;2022-08-19T02:28:36;19.93;;;17.63;;
14619;SDS011;32125;48.518;9.050;2022-08-19T02:31:02;18.93;;;16.93;;
14619;SDS011;32125;48.518;9.050;2022-08-19T02:33:28;21.40;;;17.90;;
14619;SDS011;32125;48.518;9.050;2022-08-19T02:35:59;20.90;;;18.10;;
14619;SDS011;32125;48.518;9.050;2022-08-19T02:38:25;19.10;;;17.20;;
14619;SDS011;32125;48.518;9.050;2022-08-19T02:40:52;19.33;;;17.23;;
14619;SDS011;32125;48.518;9.050;2022-08-19T02:43:18;20.40;;;18.30;;
14619;SDS011;32125;48.518;9.050;2022-08-19T02:45:47;20.20;;;18.00;;
14619;SDS011;32125;48.518;9.050;2022-08-19T02:48:18;21.33;;;17.87;;
14619;SDS011;32125;48.518;9.050;2022-08-19T02:50:47;19.80;;;17.80;;
14619;SDS011;32125;48.518;9.050;2022-08-19T02:53:17;19.53;;;17.40;;
14619;SDS011;32125;48.518;9.050;2022-08-19T02:55:44;19.43;;;17.43;;
14619;SDS011;32125;48.518;9.050;2022-08-19T02:58:12;21.10;;;18.90;;
14619;SDS011;32125;48.518;9.050;2022-08-19T03:00:45;19.13;;;16.77;;
14619;SDS011;32125;48.518;9.050;2022-08-19T03:03:12;20.60;;;17.73;;
14619;SDS011;32125;48.518;9.050;2022-08-19T03:05:39;22.70;;;17.63;;
14619;SDS011;32125;48.518;9.050;2022-08-19T03:08:05;20.17;;;18.07;;
14619;SDS011;32125;48.518;9.050;2022-08-19T03:10:39;20.20;;;17.80;;
14619;SDS011;32125;48.518;9.050;2022-08-19T03:13:13;20.63;;;18.40;;
14619;SDS011;32125;48.518;9.050;2022-08-19T03:15:44;21.37;;;19.07;;
14619;SDS011;32125;48.518;9.050;2022-08-19T03:18:12;20.43;;;18.23;;
14619;SDS011;32125;48.518;9.050;2022-08-19T03:20:42;21.10;;;18.70;;
14619;SDS011;32125;48.518;9.050;2022-08-19T03:23:11;21.23;;;19.00;;
14619;SDS011;32125;48.518;9.050;2022-08-19T03:25:40;20.50;;;18.00;;
14619;SDS011;32125;48.518;9.050;2022-08-19T03:28:08;22.73;;;19.53;;
14619;SDS011;32125;48.518;9.050;2022-08-19T03:30:38;21.90;;;18.93;;
14619;SDS011;32125;48.518;9.050;2022-08-19T03:33:07;23.67;;;19.57;;
14619;SDS011;32125;48.518;9.050;2022-08-19T03:35:34;21.43;;;18.77;;
14619;SDS011;32125;48.518;9.050;2022-08-19T03:38:05;21.70;;;18.97;;
14619;SDS011;32125;48.518;9.050;2022-08-19T03:40:32;21.90;;;19.23;;
14619;SDS011;32125;48.518;9.050;2022-08-19T03:43:01;20.87;;;18.57;;
14619;SDS011;32125;48.518;9.050;2022-08-19T03:45:27;23.30;;;20.07;;
14619;SDS011;32125;48.518;9.050;2022-08-19T03:47:53;23.63;;;19.07;;
14619;SDS011;32125;48.518;9.050;2022-08-19T03:50:20;23.43;;;19.83;;
14619;SDS011;32125;48.518;9.050;2022-08-19T03:52:49;23.03;;;19.83;;
14619;SDS011;32125;48.518;9.050;2022-08-19T03:55:18;23.93;;;19.80;;
14619;SDS011;32125;48.518;9.050;2022-08-19T03:57:44;22.40;;;19.37;;
14619;SDS011;32125;48.518;9.050;2022-08-19T04:00:12;21.67;;;18.77;;
14619;SDS011;32125;48.518;9.050;2022-08-19T04:02:38;22.77;;;19.20;;
14619;SDS011;32125;48.518;9.050;2022-08-19T04:05:05;21.50;;;18.90;;
14619;SDS011;32125;48.518;9.050;2022-08-19T04:07:32;22.60;;;19.97;;
14619;SDS011;32125;48.518;9.050;2022-08-19T04:09:58;21.60;;;19.30;;
14619;SDS011;32125;48.518;9.050;2022-08-19T04:12:25;22.57;;;19.23;;
14619;SDS011;32125;48.518;9.050;2022-08-19T04:14:51;23.57;;;19.90;;
14619;SDS011;32125;48.518;9.050;2022-08-19T04:17:16;22.33;;;19.60;;
14619;SDS011;32125;48.518;9.050;2022-08-19T04:19:44;23.77;;;20.60;;
14619;SDS011;32125;48.518;9.050;2022-08-19T04:22:10;23.57;;;20.40;;
14619;SDS011;32125;48.518;9.050;2022-08-19T04:24:36;25.20;;;20.33;;
14619;SDS011;32125;48.518;9.050;2022-08-19T04:27:02;23.30;;;20.07;;
14619;SDS011;32125;48.518;9.050;2022-08-19T04:29:30;23.73;;;21.03;;
14619;SDS011;32125;48.518;9.050;2022-08-19T04:31:56;25.37;;;20.80;;
14619;SDS011;32125;48.518;9.050;2022-08-19T04:34:24;25.30;;;20.83;;
14619;SDS011;32125;48.518;9.050;2022-08-19T04:36:55;23.73;;;20.10;;
14619;SDS011;32125;48.518;9.050;2022-08-19T04:39:24;23.63;;;19.83;;
14619;SDS011;32125;48.518;9.050;2022-08-19T04:42:14;25.50;;;20.73;;
14619;SDS011;32125;48.518;9.050;2022-08-19T04:45:01;26.20;;;21.30;;
14619;SDS011;32125;48.518;9.050;2022-08-19T04:47:28;24.80;;;20.93;;
14619;SDS011;32125;48.518;9.050;2022-08-19T04:49:54;22.13;;;19.37;;
14619;SDS011;32125;48.518;9.050;2022-08-19T04:52:20;26.57;;;19.67;;
14619;SDS011;32125;48.518;9.050;2022-08-19T04:54:46;24.23;;;20.17;;
14619;SDS011;32125;48.518;9.050;2022-08-19T04:57:15;26.90;;;21.67;;
14619;SDS011;32125;48.518;9.050;2022-08-19T04:59:41;25.60;;;20.87;;
14619;SDS011;32125;48.518;9.050;2022-08-19T05:02:08;24.60;;;20.03;;
14619;SDS011;32125;48.518;9.050;2022-08-19T05:04:34;23.80;;;21.13;;
14619;SDS011;32125;48.518;9.050;2022-08-19T05:07:03;23.57;;;20.37;;
14619;SDS011;32125;48.518;9.050;2022-08-19T05:09:31;24.63;;;20.63;;
14619;SDS011;32125;48.518;9.050;2022-08-19T05:11:57;25.03;;;20.67;;
14619;SDS011;32125;48.518;9.050;2022-08-19T05:14:24;25.07;;;21.50;;
14619;SDS011;32125;48.518;9.050;2022-08-19T05:16:50;24.63;;;21.23;;
14619;SDS011;32125;48.518;9.050;2022-08-19T05:19:16;27.47;;;20.60;;
14619;SDS011;32125;48.518;9.050;2022-08-19T05:22:00;26.03;;;21.80;;
14619;SDS011;32125;48.518;9.050;2022-08-19T05:24:47;25.03;;;21.17;;
14619;SDS011;32125;48.518;9.050;2022-08-19T05:27:13;24.87;;;20.80;;
14619;SDS011;32125;48.518;9.050;2022-08-19T05:29:41;25.70;;;21.10;;
14619;SDS011;32125;48.518;9.050;2022-08-19T05:32:10;25.77;;;20.80;;
14619;SDS011;32125;48.518;9.050;2022-08-19T05:34:38;27.10;;;21.50;;
14619;SDS011;32125;48.518;9.050;2022-08-19T05:37:06;27.50;;;22.73;;
14619;SDS011;32125;48.518;9.050;2022-08-19T05:39:34;24.63;;;20.97;;
14619;SDS011;32125;48.518;9.050;2022-08-19T05:42:06;29.20;;;22.47;;
14619;SDS011;32125;48.518;9.050;2022-08-19T05:44:35;28.77;;;21.80;;
14619;SDS011;32125;48.518;9.050;2022-08-19T05:47:05;24.43;;;21.27;;
14619;SDS011;32125;48.518;9.050;2022-08-19T05:49:32;24.73;;;21.27;;
14619;SDS011;32125;48.518;9.050;2022-08-19T05:52:02;27.13;;;22.73;;
14619;SDS011;32125;48.518;9.050;2022-08-19T05:54:32;29.07;;;22.23;;
14619;SDS011;32125;48.518;9.050;2022-08-19T05:56:58;25.00;;;22.10;;
14619;SDS011;32125;48.518;9.050;2022-08-19T05:59:26;26.60;;;21.97;;
14619;SDS011;32125;48.518;9.050;2022-08-19T06:01:54;26.00;;;22.70;;
14619;SDS011;32125;48.518;9.050;2022-08-19T06:04:21;26.43;;;22.57;;
14619;SDS011;32125;48.518;9.050;2022-08-19T06:06:51;27.87;;;21.73;;
14619;SDS011;32125;48.518;9.050;2022-08-19T06:09:19;25.23;;;20.97;;
14619;SDS011;32125;48.518;9.050;2022-08-19T06:11:46;27.83;;;22.83;;
14619;SDS011;32125;48.518;9.050;2022-08-19T06:14:15;28.48;;;21.13;;
14619;SDS011;32125;48.518;9.050;2022-08-19T06:16:43;27.53;;;22.87;;
14619;SDS011;32125;48.518;9.050;2022-08-19T06:19:13;27.70;;;22.90;;
14619;SDS011;32125;48.518;9.050;2022-08-19T06:21:41;29.15;;;23.42;;
14619;SDS011;32125;48.518;9.050;2022-08-19T06:24:09;27.27;;;22.63;;
14619;SDS011;32125;48.518;9.050;2022-08-19T06:26:40;28.13;;;22.87;;
14619;SDS011;32125;48.518;9.050;2022-08-19T06:29:07;27.13;;;23.17;;
14619;SDS011;32125;48.518;9.050;2022-08-19T06:31:40;28.80;;;23.63;;
14619;SDS011;32125;48.518;9.050;2022-08-19T06:34:14;29.57;;;24.33;;
14619;SDS011;32125;48.518;9.050;2022-08-19T06:36:41;28.75;;;23.15;;
14619;SDS011;32125;48.518;9.050;2022-08-19T06:39:11;29.67;;;24.23;;
14619;SDS011;32125;48.518;9.050;2022-08-19T06:41:40;25.30;;;20.70;;
14619;SDS011;32125;48.518;9.050;2022-08-19T06:44:08;26.80;;;23.10;;
14619;SDS011;32125;48.518;9.050;2022-08-19T06:46:35;27.77;;;23.50;;
14619;SDS011;32125;48.518;9.050;2022-08-19T06:49:01;28.17;;;23.67;;
14619;SDS011;32125;48.518;9.050;2022-08-19T06:51:28;27.47;;;23.60;;
14619;SDS011;32125;48.518;9.050;2022-08-19T06:53:58;27.73;;;23.77;;
14619;SDS011;32125;48.518;9.050;2022-08-19T06:56:26;31.17;;;23.80;;
14619;SDS011;32125;48.518;9.050;2022-08-19T06:58:58;29.43;;;23.93;;
14619;SDS011;32125;48.518;9.050;2022-08-19T07:01:28;31.90;;;24.50;;
14619;SDS011;32125;48.518;9.050;2022-08-19T07:03:54;29.23;;;24.20;;
14619;SDS011;32125;48.518;9.050;2022-08-19T07:06:23;29.98;;;23.52;;
14619;SDS011;32125;48.518;9.050;2022-08-19T07:08:49;30.15;;;23.90;;
14619;SDS011;32125;48.518;9.050;2022-08-19T07:11:16;26.63;;;22.98;;
14619;SDS011;32125;48.518;9.050;2022-08-19T07:13:46;27.43;;;24.07;;
14619;SDS011;32125;48.518;9.050;2022-08-19T07:16:14;26.40;;;23.00;;
14619;SDS011;32125;48.518;9.050;2022-08-19T07:18:44;29.15;;;24.15;;
14619;SDS011;32125;48.518;9.050;2022-08-19T07:21:15;28.73;;;24.50;;
14619;SDS011;32125;48.518;9.050;2022-08-19T07:23:42;27.38;;;23.05;;
14619;SDS011;32125;48.518;9.050;2022-08-19T07:26:09;27.80;;;24.50;;
14619;SDS011;32125;48.518;9.050;2022-08-19T07:28:35;27.70;;;24.00;;
14619;SDS011;32125;48.518;9.050;2022-08-19T07:31:04;29.25;;;22.80;;
14619;SDS011;32125;48.518;9.050;2022-08-19T07:33:35;29.02;;;23.15;;
14619;SDS011;32125;48.518;9.050;2022-08-19T07:36:02;25.83;;;23.00;;
14619;SDS011;32125;48.518;9.050;2022-08-19T07:38:33;28.90;;;24.73;;
14619;SDS011;32125;48.518;9.050;2022-08-19T07:40:59;27.30;;;23.63;;
14619;SDS011;32125;48.518;9.050;2022-08-19T07:43:26;29.55;;;24.85;;
14619;SDS011;32125;48.518;9.050;2022-08-19T07:45:52;28.27;;;24.73;;
14619;SDS011;32125;48.518;9.050;2022-08-19T07:48:21;28.38;;;24.95;;
14619;SDS011;32125;48.518;9.050;2022-08-19T07:50:55;29.00;;;24.52;;
14619;SDS011;32125;48.518;9.050;2022-08-19T07:53:22;29.08;;;24.58;;
14619;SDS011;32125;48.518;9.050;2022-08-19T07:55:48;32.85;;;25.58;;
14619;SDS011;32125;48.518;9.050;2022-08-19T07:58:15;28.95;;;23.98;;
14619;SDS011;32125;48.518;9.050;2022-08-19T08:00:42;28.67;;;24.80;;
14619;SDS011;32125;48.518;9.050;2022-08-19T08:03:08;29.48;;;25.23;;
14619;SDS011;32125;48.518;9.050;2022-08-19T08:05:34;31.20;;;25.73;;
14619;SDS011;32125;48.518;9.050;2022-08-19T08:08:21;30.55;;;26.13;;
14619;SDS011;32125;48.518;9.050;2022-08-19T08:11:07;29.42;;;24.42;;
14619;SDS011;32125;48.518;9.050;2022-08-19T08:13:33;29.38;;;24.83;;
14619;SDS011;32125;48.518;9.050;2022-08-19T08:16:00;30.48;;;25.48;;
14619;SDS011;32125;48.518;9.050;2022-08-19T08:18:26;29.35;;;24.45;;
14619;SDS011;32125;48.518;9.050;2022-08-19T08:20:52;30.10;;;25.60;;
14619;SDS011;32125;48.518;9.050;2022-08-19T08:23:18;30.08;;;25.42;;
14619;SDS011;32125;48.518;9.050;2022-08-19T08:25:51;29.98;;;24.70;;
14619;SDS011;32125;48.518;9.050;2022-08-19T08:28:20;28.63;;;25.10;;
14619;SDS011;32125;48.518;9.050;2022-08-19T08:30:49;30.55;;;25.58;;
14619;SDS011;32125;48.518;9.050;2022-08-19T08:33:19;29.05;;;25.77;;
14619;SDS011;32125;48.518;9.050;2022-08-19T08:35:46;31.33;;;25.70;;
14619;SDS011;32125;48.518;9.050;2022-08-19T08:38:12;29.17;;;25.08;;
14619;SDS011;32125;48.518;9.050;2022-08-19T08:40:47;28.20;;;24.75;;
14619;SDS011;32125;48.518;9.050;2022-08-19T08:43:22;31.27;;;26.98;;
14619;SDS011;32125;48.518;9.050;2022-08-19T08:46:18;29.95;;;25.88;;
14619;SDS011;32125;48.518;9.050;2022-08-19T08:48:59;31.95;;;26.08;;
14619;SDS011;32125;48.518;9.050;2022-08-19T08:52:10;30.45;;;25.90;;
14619;SDS011;32125;48.518;9.050;2022-08-19T08:54:46;30.38;;;25.33;;
14619;SDS011;32125;48.518;9.050;2022-08-19T08:57:13;31.13;;;26.10;;
14619;SDS011;32125;48.518;9.050;2022-08-19T08:59:51;31.13;;;26.83;;
14619;SDS011;32125;48.518;9.050;2022-08-19T09:02:22;32.97;;;27.27;;
14619;SDS011;32125;48.518;9.050;2022-08-19T09:04:50;31.23;;;26.50;;
14619;SDS011;32125;48.518;9.050;2022-08-19T09:15:51;37.08;;;28.20;;
14619;SDS011;32125;48.518;9.050;2022-08-19T09:21:07;35.70;;;27.60;;
14619;SDS011;32125;48.518;9.050;2022-08-19T09:23:36;32.83;;;26.25;;
14619;SDS011;32125;48.518;9.050;2022-08-19T09:26:11;28.85;;;25.73;;
14619;SDS011;32125;48.518;9.050;2022-08-19T09:28:39;30.85;;;26.05;;
14619;SDS011;32125;48.518;9.050;2022-08-19T09:31:09;31.25;;;24.92;;
14619;SDS011;32125;48.518;9.050;2022-08-19T09:33:36;30.23;;;25.55;;
14619;SDS011;32125;48.518;9.050;2022-08-19T09:36:04;27.33;;;24.25;;
14619;SDS011;32125;48.518;9.050;2022-08-19T09:38:32;28.77;;;24.98;;
14619;SDS011;32125;48.518;9.050;2022-08-19T09:41:01;32.53;;;24.77;;
14619;SDS011;32125;48.518;9.050;2022-08-19T09:43:29;26.92;;;23.80;;
14619;SDS011;32125;48.518;9.050;2022-08-19T09:45:56;28.10;;;23.80;;
14619;SDS011;32125;48.518;9.050;2022-08-19T09:48:22;26.73;;;23.25;;
14619;SDS011;32125;48.518;9.050;2022-08-19T09:50:52;25.73;;;22.98;;
14619;SDS011;32125;48.518;9.050;2022-08-19T09:53:17;25.02;;;22.08;;
14619;SDS011;32125;48.518;9.050;2022-08-19T09:55:44;29.67;;;24.05;;
14619;SDS011;32125;48.518;9.050;2022-08-19T09:58:09;25.35;;;22.45;;
14619;SDS011;32125;48.518;9.050;2022-08-19T10:00:37;27.15;;;23.65;;
14619;SDS011;32125;48.518;9.050;2022-08-19T10:03:05;26.95;;;23.92;;
14619;SDS011;32125;48.518;9.050;2022-08-19T10:05:30;28.52;;;24.48;;
14619;SDS011;32125;48.518;9.050;2022-08-19T10:08:19;30.73;;;25.17;;
14619;SDS011;32125;48.518;9.050;2022-08-19T10:10:45;28.73;;;24.08;;
14619;SDS011;32125;48.518;9.050;2022-08-19T10:13:12;27.67;;;23.77;;
14619;SDS011;32125;48.518;9.050;2022-08-19T10:15:38;27.95;;;24.38;;
14619;SDS011;32125;48.518;9.050;2022-08-19T10:18:06;27.73;;;24.67;;
14619;SDS011;32125;48.518;9.050;2022-08-19T10:20:32;31.33;;;25.05;;
14619;SDS011;32125;48.518;9.050;2022-08-19T10:23:00;31.20;;;25.92;;
14619;SDS011;32125;48.518;9.050;2022-08-19T10:25:29;29.52;;;25.15;;
14619;SDS011;32125;48.518;9.050;2022-08-19T10:27:54;28.23;;;24.33;;
14619;SDS011;32125;48.518;9.050;2022-08-19T10:30:20;24.75;;;19.23;;
14619;SDS011;32125;48.518;9.050;2022-08-19T10:32:46;26.98;;;23.50;;
14619;SDS011;32125;48.518;9.050;2022-08-19T10:35:12;31.23;;;25.40;;
14619;SDS011;32125;48.518;9.050;2022-08-19T10:37:39;27.50;;;23.83;;
14619;SDS011;32125;48.518;9.050;2022-08-19T10:40:06;30.13;;;23.55;;
14619;SDS011;32125;48.518;9.050;2022-08-19T10:42:33;27.92;;;24.25;;
14619;SDS011;32125;48.518;9.050;2022-08-19T10:45:04;28.75;;;25.65;;
14619;SDS011;32125;48.518;9.050;2022-08-19T10:47:31;31.08;;;24.77;;
14619;SDS011;32125;48.518;9.050;2022-08-19T10:50:00;25.65;;;22.92;;
14619;SDS011;32125;48.518;9.050;2022-08-19T10:52:45;26.92;;;24.13;;
14619;SDS011;32125;48.518;9.050;2022-08-19T10:55:11;26.45;;;23.27;;
14619;SDS011;32125;48.518;9.050;2022-08-19T10:57:55;29.50;;;25.65;;
14619;SDS011;32125;48.518;9.050;2022-08-19T11:00:23;27.45;;;23.42;;
14619;SDS011;32125;48.518;9.050;2022-08-19T11:02:53;28.50;;;25.15;;
14619;SDS011;32125;48.518;9.050;2022-08-19T11:05:22;28.05;;;24.67;;
14619;SDS011;32125;48.518;9.050;2022-08-19T11:07:48;28.67;;;24.98;;
14619;SDS011;32125;48.518;9.050;2022-08-19T11:10:15;30.33;;;25.17;;
14619;SDS011;32125;48.518;9.050;2022-08-19T11:12:44;30.07;;;25.93;;
14619;SDS011;32125;48.518;9.050;2022-08-19T11:15:13;28.80;;;25.70;;
14619;SDS011;32125;48.518;9.050;2022-08-19T11:17:41;27.48;;;24.58;;
14619;SDS011;32125;48.518;9.050;2022-08-19T11:20:12;27.98;;;24.98;;
14619;SDS011;32125;48.518;9.050;2022-08-19T11:22:39;27.55;;;24.58;;
14619;SDS011;32125;48.518;9.050;2022-08-19T11:25:09;30.50;;;25.05;;
14619;SDS011;32125;48.518;9.050;2022-08-19T11:27:39;27.13;;;24.25;;
14619;SDS011;32125;48.518;9.050;2022-08-19T11:30:11;30.13;;;25.25;;
14619;SDS011;32125;48.518;9.050;2022-08-19T11:32:41;27.60;;;24.70;;
14619;SDS011;32125;48.518;9.050;2022-08-19T11:35:12;29.00;;;25.33;;
14619;SDS011;32125;48.518;9.050;2022-08-19T11:37:41;31.27;;;26.00;;
14619;SDS011;32125;48.518;9.050;2022-08-19T11:40:09;29.35;;;25.55;;
14619;SDS011;32125;48.518;9.050;2022-08-19T11:42:35;27.80;;;24.30;;
14619;SDS011;32125;48.518;9.050;2022-08-19T11:45:25;27.73;;;24.75;;
14619;SDS011;32125;48.518;9.050;2022-08-19T11:47:52;29.17;;;23.52;;
14619;SDS011;32125;48.518;9.050;2022-08-19T11:50:18;27.55;;;24.73;;
14619;SDS011;32125;48.518;9.050;2022-08-19T11:52:45;28.77;;;25.05;;
14619;SDS011;32125;48.518;9.050;2022-08-19T11:55:12;28.60;;;25.60;;
14619;SDS011;32125;48.518;9.050;2022-08-19T11:57:39;29.55;;;25.83;;
14619;SDS011;32125;48.518;9.050;2022-08-19T12:00:06;27.60;;;24.58;;
14619;SDS011;32125;48.518;9.050;2022-08-19T12:02:32;27.75;;;24.80;;
14619;SDS011;32125;48.518;9.050;2022-08-19T12:05:00;26.77;;;23.45;;
14619;SDS011;32125;48.518;9.050;2022-08-19T12:07:27;27.25;;;24.33;;
14619;SDS011;32125;48.518;9.050;2022-08-19T12:09:56;29.63;;;26.50;;
14619;SDS011;32125;48.518;9.050;2022-08-19T12:12:22;28.55;;;25.45;;
14619;SDS011;32125;48.518;9.050;2022-08-19T12:14:49;25.25;;;22.65;;
14619;SDS011;32125;48.518;9.050;2022-08-19T12:17:21;29.00;;;25.85;;
14619;SDS011;32125;48.518;9.050;2022-08-19T12:19:53;28.08;;;25.17;;
14619;SDS011;32125;48.518;9.050;2022-08-19T12:22:19;31.48;;;25.98;;
14619;SDS011;32125;48.518;9.050;2022-08-19T12:24:47;27.58;;;24.58;;
14619;SDS011;32125;48.518;9.050;2022-08-19T12:27:15;29.17;;;25.10;;
14619;SDS011;32125;48.518;9.050;2022-08-19T12:29:41;29.08;;;25.08;;
14619;SDS011;32125;48.518;9.050;2022-08-19T12:32:06;26.55;;;23.70;;
14619;SDS011;32125;48.518;9.050;2022-08-19T12:34:32;27.52;;;24.63;;
14619;SDS011;32125;48.518;9.050;2022-08-19T12:37:01;27.98;;;25.08;;
14619;SDS011;32125;48.518;9.050;2022-08-19T12:39:34;26.23;;;23.20;;
14619;SDS011;32125;48.518;9.050;2022-08-19T12:42:03;26.33;;;23.63;;
14619;SDS011;32125;48.518;9.050;2022-08-19T12:44:30;25.65;;;22.42;;
14619;SDS011;32125;48.518;9.050;2022-08-19T12:46:56;23.95;;;21.48;;
14619;SDS011;32125;48.518;9.050;2022-08-19T12:49:23;26.00;;;23.30;;
14619;SDS011;32125;48.518;9.050;2022-08-19T12:51:49;26.88;;;24.00;;
14619;SDS011;32125;48.518;9.050;2022-08-19T12:54:15;25.27;;;22.77;;
14619;SDS011;32125;48.518;9.050;2022-08-19T12:56:41;27.83;;;24.83;;
14619;SDS011;32125;48.518;9.050;2022-08-19T12:59:08;27.77;;;24.67;;
14619;SDS011;32125;48.518;9.050;2022-08-19T13:01:38;26.08;;;23.48;;
14619;SDS011;32125;48.518;9.050;2022-08-19T13:04:05;26.40;;;23.27;;
14619;SDS011;32125;48.518;9.050;2022-08-19T13:06:31;25.90;;;23.30;;
14619;SDS011;32125;48.518;9.050;2022-08-19T13:08:56;26.70;;;23.52;;
14619;SDS011;32125;48.518;9.050;2022-08-19T13:11:22;21.02;;;18.92;;
14619;SDS011;32125;48.518;9.050;2022-08-19T13:13:50;25.00;;;22.43;;
14619;SDS011;32125;48.518;9.050;2022-08-19T13:16:17;21.20;;;19.00;;
14619;SDS011;32125;48.518;9.050;2022-08-19T13:18:45;24.38;;;21.77;;
14619;SDS011;32125;48.518;9.050;2022-08-19T13:21:17;22.77;;;20.37;;
14619;SDS011;32125;48.518;9.050;2022-08-19T13:23:45;24.05;;;21.55;;
14619;SDS011;32125;48.518;9.050;2022-08-19T13:26:14;20.93;;;18.83;;
14619;SDS011;32125;48.518;9.050;2022-08-19T13:28:43;23.73;;;21.23;;
14619;SDS011;32125;48.518;9.050;2022-08-19T13:31:29;24.50;;;21.83;;
14619;SDS011;32125;48.518;9.050;2022-08-19T13:34:15;25.65;;;22.90;;
14619;SDS011;32125;48.518;9.050;2022-08-19T13:36:41;24.85;;;22.35;;
14619;SDS011;32125;48.518;9.050;2022-08-19T13:39:07;24.07;;;21.57;;
14619;SDS011;32125;48.518;9.050;2022-08-19T13:41:36;23.38;;;20.98;;
14619;SDS011;32125;48.518;9.050;2022-08-19T13:44:05;23.83;;;21.37;;
14619;SDS011;32125;48.518;9.050;2022-08-19T13:46:33;24.50;;;21.98;;
14619;SDS011;32125;48.518;9.050;2022-08-19T13:48:59;25.10;;;22.48;;
14619;SDS011;32125;48.518;9.050;2022-08-19T13:51:27;24.30;;;21.52;;
14619;SDS011;32125;48.518;9.050;2022-08-19T13:53:55;24.67;;;22.27;;
14619;SDS011;32125;48.518;9.050;2022-08-19T13:56:21;24.77;;;22.03;;
14619;SDS011;32125;48.518;9.050;2022-08-19T13:58:49;24.97;;;22.17;;
14619;SDS011;32125;48.518;9.050;2022-08-19T14:01:19;23.88;;;21.48;;
14619;SDS011;32125;48.518;9.050;2022-08-19T14:03:47;24.85;;;22.45;;
14619;SDS011;32125;48.518;9.050;2022-08-19T14:06:12;24.83;;;22.33;;
14619;SDS011;32125;48.518;9.050;2022-08-19T14:08:38;24.98;;;22.35;;
14619;SDS011;32125;48.518;9.050;2022-08-19T14:11:06;25.03;;;22.43;;
14619;SDS011;32125;48.518;9.050;2022-08-19T14:13:34;24.47;;;21.87;;
14619;SDS011;32125;48.518;9.050;2022-08-19T14:16:00;24.60;;;22.00;;
14619;SDS011;32125;48.518;9.050;2022-08-19T14:18:29;20.35;;;18.23;;
14619;SDS011;32125;48.518;9.050;2022-08-19T14:20:54;24.63;;;22.23;;
14619;SDS011;32125;48.518;9.050;2022-08-19T14:23:21;22.50;;;20.33;;
14619;SDS011;32125;48.518;9.050;2022-08-19T14:25:47;22.30;;;20.10;;
14619;SDS011;32125;48.518;9.050;2022-08-19T14:28:12;22.92;;;20.73;;
14619;SDS011;32125;48.518;9.050;2022-08-19T14:30:38;24.83;;;22.15;;
14619;SDS011;32125;48.518;9.050;2022-08-19T14:33:06;23.65;;;21.27;;
14619;SDS011;32125;48.518;9.050;2022-08-19T14:35:35;21.33;;;19.23;;
14619;SDS011;32125;48.518;9.050;2022-08-19T14:38:05;23.02;;;20.60;;
14619;SDS011;32125;48.518;9.050;2022-08-19T14:40:31;21.02;;;18.92;;
14619;SDS011;32125;48.518;9.050;2022-08-19T14:42:58;24.30;;;21.90;;